Time;durP1;ratioP1;P1;durP2;ratioP2;P2;SDS_P1;SDS_P2;PMS_P1;PMS_P2;Temp;Humidity;BMP_temperature;BMP_pressure;BME280_temperature;BME280_humidity;BME280_pressure;Samples;Min_cycle;Max_cycle;Signal;HPM_P1;HPM_P2
2021/03/16 00:01:43;;;;;;;2.20;2.08;;;4.40;99.90;;;;;;4720474;30;20414;-82
2021/03/16 00:04:09;;;;;;;2.30;2.10;;;4.10;99.90;;;;;;4735695;30;20457;-80
2021/03/16 00:06:53;;;;;;;2.40;2.20;;;4.10;99.90;;;;;;4723082;30;20445;-81
2021/03/16 00:09:18;;;;;;;2.30;2.10;;;4.20;99.90;;;;;;4738800;30;20449;-84
2021/03/16 00:11:44;;;;;;;2.30;2.15;;;4.30;99.90;;;;;;4722933;30;20418;-81
2021/03/16 00:14:10;;;;;;;2.65;2.45;;;4.10;99.90;;;;;;4723227;30;20804;-82
2021/03/16 00:16:36;;;;;;;2.63;2.43;;;4.20;99.90;;;;;;4722091;30;20494;-80
2021/03/16 00:19:01;;;;;;;2.45;2.25;;;4.30;99.90;;;;;;4723022;30;20461;-82
2021/03/16 00:21:27;;;;;;;2.40;2.20;;;4.20;99.90;;;;;;4721726;30;20414;-81
2021/03/16 00:23:53;;;;;;;2.55;2.35;;;4.20;99.90;;;;;;4740922;30;20450;-86
2021/03/16 00:26:19;;;;;;;2.42;2.22;;;4.20;99.90;;;;;;4742067;30;20422;-86
2021/03/16 00:28:45;;;;;;;2.97;2.47;;;4.10;99.90;;;;;;4725791;30;20774;-80
2021/03/16 00:31:10;;;;;;;2.67;2.47;;;4.20;99.90;;;;;;4723870;30;20422;-80
2021/03/16 00:33:36;;;;;;;2.60;2.40;;;4.20;99.90;;;;;;4723860;30;20430;-81
2021/03/16 00:36:02;;;;;;;2.97;2.70;;;4.20;99.90;;;;;;4724785;30;20445;-82
2021/03/16 00:38:28;;;;;;;2.60;2.40;;;4.20;99.90;;;;;;4720061;30;20957;-81
2021/03/16 00:40:53;;;;;;;2.70;2.50;;;4.20;99.90;;;;;;4738910;30;20422;-82
2021/03/16 00:43:19;;;;;;;2.72;2.53;;;4.20;99.90;;;;;;4726091;30;20441;-86
2021/03/16 00:45:45;;;;;;;2.60;2.40;;;4.20;99.90;;;;;;4725208;30;20426;-81
2021/03/16 00:48:18;;;;;;;3.83;2.78;;;4.20;99.90;;;;;;4727516;30;20475;-81
2021/03/16 00:50:46;;;;;;;1.73;1.63;;;4.10;99.90;;;;;;4741447;30;20836;-82
2021/03/16 00:53:12;;;;;;;1.50;1.40;;;4.00;99.90;;;;;;4742007;30;20414;-82
2021/03/16 00:55:42;;;;;;;1.15;1.10;;;4.00;99.90;;;;;;4724153;30;20548;-84
2021/03/16 00:58:09;;;;;;;0.98;0.98;;;3.90;99.90;;;;;;4724491;30;20442;-81
2021/03/16 01:00:35;;;;;;;0.75;0.75;;;4.00;99.90;;;;;;4723618;30;20851;-81
2021/03/16 01:03:01;;;;;;;0.80;0.80;;;3.80;99.90;;;;;;4739059;30;20422;-81
2021/03/16 01:05:26;;;;;;;0.80;0.80;;;3.70;99.90;;;;;;4724791;30;20430;-85
2021/03/16 01:07:53;;;;;;;0.80;0.80;;;3.70;99.90;;;;;;4738723;30;20893;-81
2021/03/16 01:10:20;;;;;;;0.83;0.83;;;3.60;99.90;;;;;;4725406;30;20429;-83
2021/03/16 01:12:45;;;;;;;0.80;0.80;;;3.60;99.90;;;;;;4724096;30;20428;-84
2021/03/16 01:15:13;;;;;;;0.70;0.70;;;3.60;99.90;;;;;;4739739;30;20925;-81
2021/03/16 01:17:39;;;;;;;0.80;0.80;;;3.50;99.90;;;;;;4723696;30;20418;-83
2021/03/16 01:20:09;;;;;;;0.70;0.70;;;3.50;99.90;;;;;;4738731;30;21161;-85
2021/03/16 01:22:35;;;;;;;0.70;0.70;;;3.50;99.90;;;;;;4723625;30;20925;-84
2021/03/16 01:25:01;;;;;;;0.70;0.70;;;3.50;99.90;;;;;;4726537;30;20514;-83
2021/03/16 01:27:26;;;;;;;0.70;0.70;;;3.40;99.90;;;;;;4717936;30;20437;-81
2021/03/16 01:29:52;;;;;;;0.68;0.68;;;3.60;99.90;;;;;;4720413;30;20421;-81
2021/03/16 01:32:18;;;;;;;1.20;0.80;;;3.50;99.90;;;;;;4715716;30;20485;-81
2021/03/16 01:34:43;;;;;;;0.60;0.60;;;3.50;99.90;;;;;;4721323;30;20969;-81
2021/03/16 01:37:09;;;;;;;1.90;0.70;;;3.50;99.90;;;;;;4722109;30;20434;-82
2021/03/16 01:39:35;;;;;;;0.80;0.80;;;3.60;99.90;;;;;;4723914;30;20422;-82
2021/03/16 01:42:00;;;;;;;0.80;0.80;;;3.50;99.90;;;;;;4724536;30;20449;-82
2021/03/16 01:44:26;;;;;;;0.70;0.70;;;3.60;99.90;;;;;;4724548;30;20434;-84
2021/03/16 01:46:52;;;;;;;0.80;0.80;;;3.50;99.90;;;;;;4723288;30;20423;-81
2021/03/16 01:49:18;;;;;;;0.85;0.85;;;3.50;99.90;;;;;;4723844;30;20479;-83
2021/03/16 01:51:44;;;;;;;1.00;1.00;;;3.50;99.90;;;;;;4723852;30;20460;-83
2021/03/16 01:54:09;;;;;;;0.90;0.90;;;3.50;99.90;;;;;;4721563;30;20488;-80
2021/03/16 01:56:37;;;;;;;0.90;0.90;;;3.50;99.90;;;;;;4722856;30;20457;-83
2021/03/16 01:59:21;;;;;;;1.10;1.10;;;3.50;99.90;;;;;;4741593;30;20422;-87
2021/03/16 02:02:06;;;;;;;1.70;1.50;;;3.60;99.90;;;;;;4739263;30;20476;-85
2021/03/16 02:04:51;;;;;;;1.13;1.13;;;3.50;99.90;;;;;;4737932;30;20437;-84
2021/03/16 02:08:02;;;;;;;1.30;1.30;;;3.50;99.90;;;;;;4736568;30;20938;-82
2021/03/16 02:11:01;;;;;;;1.20;1.20;;;3.60;99.90;;;;;;4723767;30;20426;-80
2021/03/16 02:13:51;;;;;;;1.40;1.30;;;3.60;99.90;;;;;;4735649;30;20421;-80
2021/03/16 02:16:38;;;;;;;1.60;1.50;;;3.70;99.90;;;;;;4735158;30;20429;-85
2021/03/16 02:19:44;;;;;;;1.40;1.30;;;3.70;99.90;;;;;;4736580;30;20506;-86
2021/03/16 02:22:29;;;;;;;1.43;1.33;;;3.70;99.90;;;;;;4737740;30;20509;-85
2021/03/16 02:25:37;;;;;;;1.30;1.20;;;3.70;99.90;;;;;;4738214;30;20514;-82
2021/03/16 02:28:33;;;;;;;1.17;1.17;;;3.70;99.90;;;;;;4730068;30;20833;-82
2021/03/16 02:31:17;;;;;;;1.40;1.30;;;3.70;99.90;;;;;;4734795;30;20429;-80
2021/03/16 02:34:03;;;;;;;1.13;1.13;;;3.60;99.90;;;;;;4736921;30;20425;-82
2021/03/16 02:36:47;;;;;;;1.20;1.20;;;3.60;99.90;;;;;;4736352;30;20436;-83
2021/03/16 02:39:31;;;;;;;1.20;1.20;;;3.60;99.90;;;;;;4736101;30;20414;-81
2021/03/16 02:42:15;;;;;;;1.40;1.30;;;3.60;99.90;;;;;;4735689;30;20418;-83
2021/03/16 02:45:02;;;;;;;1.13;1.13;;;3.60;99.90;;;;;;4723328;30;20447;-83
2021/03/16 02:47:46;;;;;;;1.20;1.20;;;3.60;99.90;;;;;;4735551;30;20477;-80
2021/03/16 02:50:30;;;;;;;1.35;1.25;;;3.70;99.90;;;;;;4739597;30;20429;-79
2021/03/16 02:53:15;;;;;;;1.10;1.10;;;3.60;99.90;;;;;;4731188;30;20414;-80
2021/03/16 02:55:59;;;;;;;1.08;1.00;;;3.60;99.90;;;;;;4732761;30;20418;-80
2021/03/16 02:58:44;;;;;;;0.90;0.90;;;3.60;99.90;;;;;;4733010;30;20410;-83
2021/03/16 03:01:28;;;;;;;1.10;1.10;;;3.60;99.90;;;;;;4732452;30;20521;-79
2021/03/16 03:04:13;;;;;;;1.27;1.27;;;3.60;99.90;;;;;;4733731;30;20438;-83
2021/03/16 03:06:59;;;;;;;1.30;1.20;;;3.60;99.90;;;;;;4719887;30;20507;-80
2021/03/16 03:09:43;;;;;;;1.75;1.65;;;3.60;99.90;;;;;;4732085;30;20429;-82
2021/03/16 03:12:27;;;;;;;1.50;1.40;;;3.70;99.90;;;;;;4733524;30;20527;-82
2021/03/16 03:15:12;;;;;;;1.60;1.50;;;3.60;99.90;;;;;;4734520;30;20421;-80
2021/03/16 03:17:57;;;;;;;2.17;1.98;;;3.80;99.90;;;;;;4712053;30;20475;-83
2021/03/16 03:20:41;;;;;;;2.15;1.90;;;3.70;99.90;;;;;;4726697;30;20474;-80
2021/03/16 03:23:28;;;;;;;2.00;1.90;;;3.70;99.90;;;;;;4732541;30;20452;-79
2021/03/16 03:26:30;;;;;;;1.80;1.70;;;3.70;99.90;;;;;;4738619;30;20425;-80
2021/03/16 03:29:14;;;;;;;1.75;1.65;;;3.70;99.90;;;;;;4725425;30;20941;-79
2021/03/16 03:31:59;;;;;;;1.92;1.73;;;3.70;99.90;;;;;;4737987;30;20450;-82
2021/03/16 03:34:44;;;;;;;1.50;1.40;;;3.80;99.90;;;;;;4742405;30;20429;-84
2021/03/16 03:37:28;;;;;;;1.38;1.30;;;3.70;99.90;;;;;;4740001;30;20426;-85
2021/03/16 03:40:13;;;;;;;1.23;1.23;;;3.60;99.90;;;;;;4738602;30;20908;-82
2021/03/16 03:42:59;;;;;;;1.40;1.30;;;3.60;99.90;;;;;;4739787;30;20429;-81
2021/03/16 03:45:43;;;;;;;1.00;1.00;;;3.50;99.90;;;;;;4740715;30;20438;-80
2021/03/16 03:48:27;;;;;;;1.00;1.00;;;3.50;99.90;;;;;;4740078;30;20464;-82
2021/03/16 03:51:12;;;;;;;0.90;0.90;;;3.40;99.90;;;;;;4738914;30;20434;-81
2021/03/16 03:53:57;;;;;;;1.00;1.00;;;3.50;99.90;;;;;;4737970;30;20925;-80
2021/03/16 03:56:41;;;;;;;0.82;0.82;;;3.50;99.90;;;;;;4738293;30;20398;-81
2021/03/16 03:59:25;;;;;;;0.90;0.90;;;3.50;99.90;;;;;;4738314;30;20422;-83
2021/03/16 04:02:10;;;;;;;1.10;1.10;;;3.40;99.90;;;;;;4724625;30;20769;-83
2021/03/16 04:04:54;;;;;;;1.13;1.13;;;3.50;99.90;;;;;;4738330;30;21079;-84
2021/03/16 04:07:38;;;;;;;1.00;1.00;;;3.60;99.90;;;;;;4736167;30;20960;-79
2021/03/16 04:10:23;;;;;;;2.58;1.40;;;3.50;99.90;;;;;;4711512;30;20429;-82
2021/03/16 04:13:07;;;;;;;1.48;1.40;;;3.50;99.90;;;;;;4737332;30;20920;-80
2021/03/16 04:15:52;;;;;;;1.52;1.42;;;3.60;99.90;;;;;;4741905;30;21246;-80
2021/03/16 04:18:36;;;;;;;1.30;1.25;;;3.60;99.90;;;;;;4718716;30;20418;-82
2021/03/16 04:21:20;;;;;;;1.13;1.13;;;3.50;99.90;;;;;;4740278;30;20418;-84
2021/03/16 04:24:05;;;;;;;1.20;1.20;;;3.50;99.90;;;;;;4739533;30;20458;-82
2021/03/16 04:26:49;;;;;;;1.42;1.33;;;3.50;99.90;;;;;;4738076;30;20990;-79
2021/03/16 04:29:34;;;;;;;1.70;1.60;;;3.50;99.90;;;;;;4738062;30;20454;-79
2021/03/16 04:32:18;;;;;;;1.88;1.77;;;3.60;99.90;;;;;;4737441;30;20410;-81
2021/03/16 04:35:02;;;;;;;2.08;1.98;;;3.50;99.90;;;;;;4737971;30;20429;-79
2021/03/16 04:37:47;;;;;;;2.58;2.38;;;3.40;99.90;;;;;;4736553;30;20784;-80
2021/03/16 04:40:31;;;;;;;2.78;2.58;;;3.50;99.90;;;;;;4714968;30;20432;-77
2021/03/16 04:43:15;;;;;;;2.65;2.45;;;3.40;99.90;;;;;;4719423;30;20421;-77
2021/03/16 04:46:00;;;;;;;3.13;2.47;;;3.40;99.90;;;;;;4729019;30;20533;-78
2021/03/16 04:48:44;;;;;;;2.80;2.60;;;3.40;99.90;;;;;;4719892;30;20473;-81
2021/03/16 04:51:29;;;;;;;2.72;2.53;;;3.40;99.90;;;;;;4715480;30;20426;-79
2021/03/16 04:54:13;;;;;;;2.88;2.67;;;3.40;99.90;;;;;;4742679;30;20453;-76
2021/03/16 04:56:57;;;;;;;3.30;3.00;;;3.40;99.90;;;;;;4709671;30;20566;-76
2021/03/16 04:59:42;;;;;;;2.97;2.78;;;3.40;99.90;;;;;;4720972;30;20449;-75
2021/03/16 05:02:26;;;;;;;3.15;2.85;;;3.50;99.90;;;;;;4719809;30;20488;-81
2021/03/16 05:05:11;;;;;;;3.10;2.90;;;3.40;99.90;;;;;;4718620;30;20545;-80
2021/03/16 05:07:55;;;;;;;2.63;2.42;;;3.40;99.90;;;;;;4722131;30;20483;-77
2021/03/16 05:10:39;;;;;;;2.95;2.65;;;3.40;99.90;;;;;;4721610;30;20451;-78
2021/03/16 05:13:23;;;;;;;2.60;2.43;;;3.40;99.90;;;;;;4735959;30;20478;-82
2021/03/16 05:16:08;;;;;;;2.50;2.40;;;3.40;99.90;;;;;;4709542;30;20432;-82
2021/03/16 05:18:53;;;;;;;2.58;2.38;;;3.40;99.90;;;;;;4723651;30;20431;-78
2021/03/16 05:21:37;;;;;;;2.08;1.98;;;3.30;99.90;;;;;;4721450;30;20426;-79
2021/03/16 05:24:22;;;;;;;2.55;2.33;;;3.40;99.90;;;;;;4708872;30;20430;-74
2021/03/16 05:27:07;;;;;;;2.60;2.40;;;3.40;99.90;;;;;;4715696;30;20433;-75
2021/03/16 05:29:51;;;;;;;2.55;2.35;;;3.40;99.90;;;;;;4714779;30;20438;-76
2021/03/16 05:32:35;;;;;;;2.63;2.42;;;3.30;99.90;;;;;;4714272;30;20511;-77
2021/03/16 05:35:20;;;;;;;2.42;2.22;;;3.30;99.90;;;;;;4724964;30;20435;-77
2021/03/16 05:38:04;;;;;;;3.08;2.88;;;3.30;99.90;;;;;;4703318;30;20463;-80
2021/03/16 05:40:49;;;;;;;2.85;2.65;;;3.30;99.90;;;;;;4720463;30;20977;-77
2021/03/16 05:43:33;;;;;;;3.10;2.35;;;3.30;99.90;;;;;;4714811;30;20464;-77
2021/03/16 05:46:18;;;;;;;3.40;2.72;;;3.20;99.90;;;;;;4723840;30;20517;-78
2021/03/16 05:49:04;;;;;;;2.80;2.50;;;3.20;99.90;;;;;;4745878;30;20433;-77
2021/03/16 05:51:49;;;;;;;2.58;2.38;;;3.20;99.90;;;;;;4733825;30;20425;-78
2021/03/16 05:54:34;;;;;;;3.38;2.53;;;3.10;99.90;;;;;;4715190;30;20435;-78
2021/03/16 05:57:18;;;;;;;2.30;2.20;;;3.20;99.90;;;;;;4728130;30;20422;-78
2021/03/16 06:00:04;;;;;;;2.30;2.10;;;3.20;99.90;;;;;;4702290;30;20430;-79
2021/03/16 06:02:49;;;;;;;2.45;2.22;;;3.20;99.90;;;;;;4717762;30;20414;-78
2021/03/16 06:05:34;;;;;;;2.00;1.90;;;3.10;99.90;;;;;;4733106;30;20510;-76
2021/03/16 06:08:19;;;;;;;2.40;2.20;;;3.10;99.90;;;;;;4728888;30;20427;-77
2021/03/16 06:11:07;;;;;;;2.80;2.23;;;3.10;99.90;;;;;;4707844;30;20421;-76
2021/03/16 06:13:55;;;;;;;2.50;2.00;;;3.10;99.90;;;;;;4709600;30;20471;-77
2021/03/16 06:16:39;;;;;;;2.08;1.98;;;3.10;99.90;;;;;;4720079;30;20541;-76
2021/03/16 06:19:28;;;;;;;2.30;2.10;;;3.00;99.90;;;;;;4741096;30;20491;-78
2021/03/16 06:22:16;;;;;;;2.20;2.00;;;3.10;99.90;;;;;;4702311;30;20419;-75
2021/03/16 06:25:00;;;;;;;1.88;1.77;;;3.10;99.90;;;;;;4708350;30;20455;-76
2021/03/16 06:27:45;;;;;;;1.90;1.80;;;3.10;99.90;;;;;;4721324;30;20445;-79
2021/03/16 06:30:29;;;;;;;2.75;2.08;;;3.10;99.90;;;;;;4704217;30;20428;-77
2021/03/16 06:33:18;;;;;;;2.00;1.90;;;3.00;99.90;;;;;;4705927;30;20429;-77
2021/03/16 06:36:04;;;;;;;2.50;1.95;;;3.00;99.90;;;;;;4718258;30;20464;-79
2021/03/16 06:38:49;;;;;;;2.13;2.03;;;3.00;99.90;;;;;;4713590;30;20479;-77
2021/03/16 06:41:36;;;;;;;2.03;1.93;;;3.10;99.90;;;;;;4722118;30;20433;-78
2021/03/16 06:44:21;;;;;;;2.10;1.90;;;3.10;99.90;;;;;;4726089;30;20519;-76
2021/03/16 06:47:06;;;;;;;2.33;2.13;;;3.10;99.90;;;;;;4724117;30;20498;-78
2021/03/16 06:49:50;;;;;;;3.35;2.20;;;3.10;99.90;;;;;;4703697;30;20971;-80
2021/03/16 06:52:34;;;;;;;2.42;2.22;;;3.20;99.90;;;;;;4707555;30;20789;-76
2021/03/16 06:55:19;;;;;;;2.85;2.50;;;3.20;99.90;;;;;;4728938;30;20488;-80
2021/03/16 06:58:06;;;;;;;2.47;2.08;;;3.20;99.90;;;;;;4727990;30;20497;-76
2021/03/16 07:01:02;;;;;;;2.10;2.00;;;3.20;99.90;;;;;;4733739;30;20427;-81
2021/03/16 07:03:47;;;;;;;2.60;2.40;;;3.20;99.90;;;;;;4732126;30;20486;-78
2021/03/16 07:06:31;;;;;;;3.65;2.38;;;3.20;99.90;;;;;;4737980;30;20499;-76
2021/03/16 07:09:16;;;;;;;3.40;2.63;;;3.20;99.90;;;;;;4704360;30;20469;-76
2021/03/16 07:12:01;;;;;;;2.10;2.00;;;3.10;99.90;;;;;;4723217;30;20452;-82
2021/03/16 07:14:45;;;;;;;2.72;2.30;;;3.20;99.90;;;;;;4714552;30;20421;-81
2021/03/16 07:17:30;;;;;;;2.40;2.20;;;3.20;99.90;;;;;;4729641;30;20991;-77
2021/03/16 07:20:15;;;;;;;2.50;2.30;;;3.20;99.90;;;;;;4735851;30;20821;-79
2021/03/16 07:22:59;;;;;;;2.53;2.30;;;3.20;99.90;;;;;;4712533;30;20416;-77
2021/03/16 07:25:43;;;;;;;2.65;2.40;;;3.20;99.90;;;;;;4724535;30;20554;-78
2021/03/16 07:28:28;;;;;;;2.92;2.22;;;3.30;99.90;;;;;;4725227;30;20432;-79
2021/03/16 07:31:13;;;;;;;2.60;2.33;;;3.20;99.90;;;;;;4729979;30;20472;-78
2021/03/16 07:34:01;;;;;;;2.50;2.30;;;3.20;99.90;;;;;;4710658;30;20504;-77
2021/03/16 07:36:49;;;;;;;2.03;1.92;;;3.20;99.90;;;;;;4722595;30;20487;-80
2021/03/16 07:39:33;;;;;;;2.20;2.00;;;3.20;99.90;;;;;;4712403;30;20421;-78
2021/03/16 07:42:17;;;;;;;2.30;2.10;;;3.20;99.90;;;;;;4722783;30;20984;-77
2021/03/16 07:45:03;;;;;;;3.80;2.00;;;3.20;99.90;;;;;;4712796;30;20434;-79
2021/03/16 07:47:48;;;;;;;1.90;1.80;;;3.10;99.90;;;;;;4722463;30;20838;-77
2021/03/16 07:50:32;;;;;;;2.55;2.00;;;3.10;99.90;;;;;;4709002;30;20452;-76
2021/03/16 07:53:24;;;;;;;2.10;1.90;;;3.10;99.90;;;;;;4717412;30;20427;-78
2021/03/16 07:56:09;;;;;;;2.05;1.92;;;3.00;99.90;;;;;;4724457;30;20419;-79
2021/03/16 07:58:53;;;;;;;1.98;1.88;;;3.10;99.90;;;;;;4725049;30;20429;-79
2021/03/16 08:01:47;;;;;;;2.53;1.80;;;3.00;99.90;;;;;;4711823;30;20427;-78
2021/03/16 08:04:39;;;;;;;1.80;1.70;;;3.10;99.90;;;;;;4716702;30;20434;-79
2021/03/16 08:07:30;;;;;;;1.63;1.52;;;3.20;99.90;;;;;;4708134;30;20436;-78
2021/03/16 08:10:28;;;;;;;1.70;1.60;;;3.10;99.90;;;;;;4720785;30;20433;-77
2021/03/16 08:13:16;;;;;;;1.60;1.50;;;3.20;99.90;;;;;;4715951;30;20435;-78
2021/03/16 08:16:12;;;;;;;1.50;1.40;;;3.30;99.90;;;;;;4747082;30;20454;-78
2021/03/16 08:19:18;;;;;;;1.70;1.60;;;3.30;99.90;;;;;;4723157;30;20432;-78
2021/03/16 08:22:02;;;;;;;2.85;1.80;;;3.40;99.90;;;;;;4711114;30;20507;-80
2021/03/16 08:24:46;;;;;;;1.60;1.50;;;3.30;99.90;;;;;;4721269;30;20437;-77
2021/03/16 08:27:32;;;;;;;1.42;1.38;;;3.30;99.90;;;;;;4709024;30;20426;-76
2021/03/16 08:30:18;;;;;;;1.70;1.60;;;3.40;99.90;;;;;;4722848;30;20429;-76
2021/03/16 08:33:10;;;;;;;1.63;1.53;;;3.40;99.90;;;;;;4707124;30;20434;-76
2021/03/16 08:35:58;;;;;;;1.65;1.55;;;3.50;99.90;;;;;;4717902;30;20430;-77
2021/03/16 08:38:43;;;;;;;1.40;1.30;;;3.50;99.90;;;;;;4719111;30;20492;-77
2021/03/16 08:41:28;;;;;;;1.70;1.60;;;3.60;99.90;;;;;;4705445;30;20509;-79
2021/03/16 08:44:16;;;;;;;1.50;1.40;;;3.70;99.90;;;;;;4719258;30;20552;-81
2021/03/16 08:47:28;;;;;;;1.30;1.30;;;3.70;99.90;;;;;;4721170;30;20473;-78
2021/03/16 08:50:12;;;;;;;1.63;1.52;;;3.80;99.90;;;;;;4732572;30;20429;-79
2021/03/16 08:52:57;;;;;;;1.98;1.48;;;3.80;99.90;;;;;;4716592;30;20464;-78
2021/03/16 08:55:41;;;;;;;1.52;1.42;;;3.80;99.90;;;;;;4720499;30;20475;-81
2021/03/16 08:58:26;;;;;;;1.50;1.40;;;3.90;99.90;;;;;;4713237;30;20437;-83
2021/03/16 09:01:10;;;;;;;1.45;1.30;;;3.80;99.90;;;;;;4716306;30;20411;-77
2021/03/16 09:03:54;;;;;;;1.50;1.40;;;3.90;99.90;;;;;;4724970;30;20430;-78
2021/03/16 09:06:39;;;;;;;1.15;1.15;;;3.90;99.90;;;;;;4707649;30;20429;-78
2021/03/16 09:09:25;;;;;;;1.80;1.58;;;3.90;99.90;;;;;;4713924;30;20437;-78
2021/03/16 09:12:09;;;;;;;1.33;1.23;;;3.90;99.90;;;;;;4732387;30;20480;-79
2021/03/16 09:14:54;;;;;;;1.25;1.20;;;4.00;99.90;;;;;;4717052;30;21010;-78
2021/03/16 09:17:40;;;;;;;1.95;1.40;;;4.00;99.90;;;;;;4709482;30;20422;-80
2021/03/16 09:20:38;;;;;;;1.42;1.33;;;4.10;99.90;;;;;;4720680;30;20453;-80
2021/03/16 09:23:22;;;;;;;1.48;1.27;;;4.10;99.90;;;;;;4706521;30;20418;-78
2021/03/16 09:26:06;;;;;;;1.77;1.60;;;4.10;99.90;;;;;;4710944;30;20501;-78
2021/03/16 09:28:51;;;;;;;1.58;1.48;;;4.20;99.90;;;;;;4719306;30;20422;-82
2021/03/16 09:31:36;;;;;;;1.23;1.13;;;4.30;99.90;;;;;;4710601;30;20456;-79
2021/03/16 09:34:20;;;;;;;1.40;1.30;;;4.40;99.90;;;;;;4735581;30;20448;-78
2021/03/16 09:37:11;;;;;;;1.40;1.30;;;4.40;99.90;;;;;;4719790;30;20529;-78
2021/03/16 09:39:59;;;;;;;1.88;1.38;;;4.50;99.90;;;;;;4714117;30;20430;-78
2021/03/16 09:42:43;;;;;;;2.03;1.23;;;4.40;99.90;;;;;;4717766;30;20920;-80
2021/03/16 09:45:26;;;;;;;1.58;1.48;;;4.40;99.90;;;;;;4704788;30;20438;-80
2021/03/16 09:47:52;;;;;;;1.37;1.27;;;4.50;99.90;;;;;;4698934;30;20431;-80
2021/03/16 09:50:37;;;;;;;1.30;1.20;;;4.50;99.90;;;;;;4709712;30;20814;-78
2021/03/16 09:53:04;;;;;;;1.60;1.50;;;4.50;99.90;;;;;;4722565;30;20426;-80
2021/03/16 09:55:30;;;;;;;3.17;1.45;;;4.60;99.90;;;;;;4722360;30;20513;-79
2021/03/16 09:57:55;;;;;;;3.17;2.20;;;4.50;99.90;;;;;;4709876;30;20515;-77
2021/03/16 10:00:25;;;;;;;2.10;1.90;;;4.40;99.90;;;;;;4720115;30;20489;-78
2021/03/16 10:03:01;;;;;;;2.08;1.88;;;4.40;99.90;;;;;;4716185;30;20529;-77
2021/03/16 10:05:27;;;;;;;1.85;1.70;;;4.30;99.90;;;;;;4707665;30;20459;-78
2021/03/16 10:07:52;;;;;;;2.23;2.03;;;4.30;99.90;;;;;;4709481;30;20435;-77
2021/03/16 10:10:25;;;;;;;2.10;1.90;;;4.40;99.90;;;;;;4703276;30;20415;-76
2021/03/16 10:12:50;;;;;;;2.45;2.08;;;4.30;99.90;;;;;;4703431;30;20572;-80
2021/03/16 10:15:21;;;;;;;2.27;2.00;;;4.30;99.90;;;;;;4743693;30;20454;-80
2021/03/16 10:17:46;;;;;;;2.23;2.03;;;4.40;99.90;;;;;;4724489;30;20433;-77
2021/03/16 10:20:14;;;;;;;1.93;1.80;;;4.50;99.90;;;;;;4704092;30;20409;-79
2021/03/16 10:22:40;;;;;;;2.17;1.90;;;4.30;99.90;;;;;;4696899;30;20442;-79
2021/03/16 10:25:09;;;;;;;1.93;1.83;;;4.30;99.90;;;;;;4718037;30;20455;-80
2021/03/16 10:27:35;;;;;;;2.70;1.60;;;4.30;99.90;;;;;;4711572;30;20422;-81
2021/03/16 10:30:06;;;;;;;2.78;2.40;;;4.40;99.90;;;;;;4705228;30;20497;-78
2021/03/16 10:32:31;;;;;;;1.80;1.70;;;4.40;99.90;;;;;;4718817;30;20427;-80
2021/03/16 10:34:57;;;;;;;1.70;1.60;;;4.40;99.90;;;;;;4720900;30;20571;-77
2021/03/16 10:37:24;;;;;;;1.48;1.38;;;4.50;99.90;;;;;;4720778;30;20443;-79
2021/03/16 10:39:49;;;;;;;1.60;1.50;;;4.60;99.90;;;;;;4721729;30;20490;-77
2021/03/16 10:42:16;;;;;;;2.27;1.50;;;4.50;99.90;;;;;;4726832;30;20424;-81
2021/03/16 10:44:41;;;;;;;1.65;1.55;;;4.60;99.90;;;;;;4705649;30;20470;-78
2021/03/16 10:47:07;;;;;;;1.50;1.40;;;4.80;99.90;;;;;;4725088;30;20419;-77
2021/03/16 10:49:33;;;;;;;2.10;1.60;;;4.90;99.90;;;;;;4713968;30;20422;-76
2021/03/16 10:51:59;;;;;;;1.50;1.40;;;4.90;99.90;;;;;;4711306;30;20445;-78
2021/03/16 10:54:25;;;;;;;1.73;1.63;;;4.90;99.90;;;;;;4712308;30;20410;-77
2021/03/16 10:56:51;;;;;;;1.80;1.40;;;4.80;99.90;;;;;;4720330;30;20422;-79
2021/03/16 10:59:17;;;;;;;1.43;1.40;;;4.90;99.90;;;;;;4708151;30;20417;-76
2021/03/16 11:01:43;;;;;;;1.60;1.50;;;5.00;99.90;;;;;;4724500;30;20871;-77
2021/03/16 11:04:09;;;;;;;2.38;1.80;;;5.10;99.90;;;;;;4728116;30;20790;-79
2021/03/16 11:06:35;;;;;;;2.38;1.80;;;5.10;99.90;;;;;;4721029;30;20429;-77
2021/03/16 11:09:02;;;;;;;2.10;1.83;;;5.20;99.90;;;;;;4699055;30;20431;-77
2021/03/16 11:11:27;;;;;;;2.25;1.73;;;5.20;99.90;;;;;;4731138;30;20423;-77
2021/03/16 11:13:54;;;;;;;1.77;1.58;;;5.10;99.90;;;;;;4704961;30;20534;-77
2021/03/16 11:16:20;;;;;;;3.50;1.60;;;5.10;99.90;;;;;;4714175;30;20430;-78
2021/03/16 11:18:45;;;;;;;1.60;1.50;;;5.10;99.90;;;;;;4721482;30;20426;-77
2021/03/16 11:21:11;;;;;;;2.50;1.58;;;5.00;99.90;;;;;;4725425;30;20932;-77
2021/03/16 11:23:37;;;;;;;1.90;1.40;;;4.90;99.90;;;;;;4702017;30;20431;-76
2021/03/16 11:26:03;;;;;;;1.60;1.50;;;4.90;99.90;;;;;;4711079;30;20428;-76
2021/03/16 11:28:28;;;;;;;1.42;1.33;;;4.80;99.90;;;;;;4736758;30;20412;-76
2021/03/16 11:30:54;;;;;;;1.60;1.50;;;4.70;99.90;;;;;;4723482;30;20460;-77
2021/03/16 11:33:20;;;;;;;1.73;1.50;;;4.80;99.90;;;;;;4723295;30;20428;-77
2021/03/16 11:36:05;;;;;;;1.63;1.52;;;4.90;99.90;;;;;;4734443;30;20426;-76
2021/03/16 11:38:50;;;;;;;1.90;1.70;;;4.90;99.90;;;;;;4714556;30;20434;-79
2021/03/16 11:41:34;;;;;;;1.70;1.60;;;5.00;99.90;;;;;;4707053;30;20799;-78
2021/03/16 11:44:18;;;;;;;1.52;1.42;;;4.90;99.90;;;;;;4709675;30;21169;-77
2021/03/16 11:47:03;;;;;;;1.92;1.70;;;4.90;99.90;;;;;;4720970;30;20441;-78
2021/03/16 11:49:47;;;;;;;1.60;1.50;;;4.90;99.90;;;;;;4710124;30;20462;-77
2021/03/16 11:52:31;;;;;;;1.90;1.40;;;4.90;99.90;;;;;;4727625;30;20490;-76
2021/03/16 11:55:15;;;;;;;2.05;1.90;;;4.90;99.90;;;;;;4706164;30;20428;-79
2021/03/16 11:58:00;;;;;;;3.55;1.70;;;4.80;99.90;;;;;;4734919;30;20440;-77
2021/03/16 12:00:44;;;;;;;1.90;1.65;;;4.80;99.90;;;;;;4728697;30;20445;-75
2021/03/16 12:03:29;;;;;;;1.70;1.60;;;4.80;99.90;;;;;;4709668;30;20442;-76
2021/03/16 12:06:13;;;;;;;1.67;1.58;;;4.80;99.90;;;;;;4705067;30;20444;-78
2021/03/16 12:08:57;;;;;;;2.50;1.67;;;5.00;99.90;;;;;;4719876;30;20479;-77
2021/03/16 12:11:41;;;;;;;3.63;1.88;;;4.90;99.90;;;;;;4721660;30;20480;-79
2021/03/16 12:14:26;;;;;;;2.10;1.60;;;5.00;99.90;;;;;;4715040;30;20441;-76
2021/03/16 12:17:11;;;;;;;1.73;1.63;;;4.90;99.90;;;;;;4720588;30;20418;-76
2021/03/16 12:19:55;;;;;;;2.97;1.92;;;4.90;99.90;;;;;;4711533;30;20426;-77
2021/03/16 12:22:39;;;;;;;1.60;1.50;;;4.90;99.90;;;;;;4709135;30;20428;-77
2021/03/16 12:25:24;;;;;;;1.70;1.58;;;4.90;99.90;;;;;;4716606;30;20492;-79
2021/03/16 12:28:08;;;;;;;1.50;1.40;;;4.90;99.90;;;;;;4727535;30;20459;-76
2021/03/16 12:30:53;;;;;;;1.60;1.50;;;4.90;99.90;;;;;;4719971;30;20462;-78
2021/03/16 12:33:38;;;;;;;2.40;1.40;;;5.20;99.90;;;;;;4713197;30;20507;-77
2021/03/16 12:36:22;;;;;;;2.00;1.40;;;5.20;99.90;;;;;;4701735;30;20496;-77
2021/03/16 12:39:06;;;;;;;1.45;1.38;;;5.30;99.90;;;;;;4726500;30;20418;-77
2021/03/16 12:41:51;;;;;;;1.60;1.50;;;5.40;99.90;;;;;;4724746;30;20422;-76
2021/03/16 12:44:35;;;;;;;1.45;1.35;;;5.50;99.90;;;;;;4717297;30;20817;-77
2021/03/16 12:47:20;;;;;;;1.40;1.30;;;5.50;99.90;;;;;;4746854;30;20417;-78
2021/03/16 12:50:05;;;;;;;1.40;1.30;;;5.60;99.90;;;;;;4708210;30;20437;-77
2021/03/16 12:52:50;;;;;;;1.30;1.20;;;5.80;99.90;;;;;;4712790;30;20487;-77
2021/03/16 12:55:34;;;;;;;1.50;1.30;;;5.90;99.90;;;;;;4716500;30;20440;-77
2021/03/16 12:58:19;;;;;;;2.47;1.37;;;5.90;99.90;;;;;;4728252;30;20430;-77
2021/03/16 13:01:03;;;;;;;1.52;1.42;;;5.90;99.90;;;;;;4722408;30;20425;-79
2021/03/16 13:03:48;;;;;;;1.10;1.10;;;5.90;99.90;;;;;;4718086;30;20480;-76
2021/03/16 13:06:32;;;;;;;1.00;1.00;;;6.00;99.90;;;;;;4717054;30;20438;-77
2021/03/16 13:09:17;;;;;;;1.20;1.20;;;6.20;99.90;;;;;;4708735;30;20841;-77
2021/03/16 13:12:01;;;;;;;1.30;1.20;;;6.50;99.90;;;;;;4724749;30;20800;-77
2021/03/16 13:14:46;;;;;;;1.10;1.10;;;6.60;99.90;;;;;;4734039;30;20445;-77
2021/03/16 13:17:30;;;;;;;1.10;1.10;;;6.70;99.90;;;;;;4722839;30;21219;-78
2021/03/16 13:20:15;;;;;;;1.08;1.08;;;6.60;99.90;;;;;;4715611;30;20433;-76
2021/03/16 13:22:59;;;;;;;1.17;1.17;;;6.60;99.90;;;;;;4712521;30;20436;-75
2021/03/16 13:25:43;;;;;;;1.13;0.98;;;6.50;99.90;;;;;;4705849;30;20454;-77
2021/03/16 13:28:28;;;;;;;1.10;1.10;;;6.60;99.90;;;;;;4709713;30;20428;-78
2021/03/16 13:31:12;;;;;;;1.23;1.20;;;6.60;99.90;;;;;;4722448;30;20426;-77
2021/03/16 13:33:56;;;;;;;1.90;1.00;;;6.60;99.90;;;;;;4715801;30;20429;-76
2021/03/16 13:36:40;;;;;;;1.33;1.23;;;6.80;99.90;;;;;;4736691;30;20434;-76
2021/03/16 13:39:25;;;;;;;1.98;1.20;;;6.70;99.90;;;;;;4701424;30;20476;-75
2021/03/16 13:42:09;;;;;;;1.73;1.05;;;6.70;99.90;;;;;;4705264;30;20840;-76
2021/03/16 13:44:54;;;;;;;1.35;1.10;;;6.80;99.90;;;;;;4719209;30;20426;-76
2021/03/16 13:47:39;;;;;;;2.05;1.30;;;7.30;99.90;;;;;;4727535;30;20454;-77
2021/03/16 13:50:23;;;;;;;3.78;1.20;;;7.70;99.90;;;;;;4722636;30;20528;-76
2021/03/16 13:53:07;;;;;;;1.20;1.10;;;7.60;99.90;;;;;;4717806;30;20456;-77
2021/03/16 13:55:52;;;;;;;1.30;1.20;;;7.50;99.90;;;;;;4693242;30;20431;-77
2021/03/16 13:58:36;;;;;;;1.20;1.10;;;7.50;99.90;;;;;;4715833;30;20433;-76
2021/03/16 14:01:20;;;;;;;1.08;1.08;;;7.30;99.90;;;;;;4715350;30;20872;-77
2021/03/16 14:04:04;;;;;;;1.30;1.20;;;7.10;99.90;;;;;;4737624;30;20512;-77
2021/03/16 14:06:49;;;;;;;1.00;1.00;;;6.90;99.90;;;;;;4711098;30;20837;-78